Time;durP1;ratioP1;P1;durP2;ratioP2;P2;SDS_P1;SDS_P2;PMS_P1;PMS_P2;Temp;Humidity;BMP_temperature;BMP_pressure;BME280_temperature;BME280_humidity;BME280_pressure;Samples;Min_cycle;Max_cycle;Signal;HPM_P1;HPM_P2
2022/01/06 00:01:39;;;;;;;2.30;2.10;;;18.50;42.40;;;;;;5019767;28;20192;-70
2022/01/06 00:04:06;;;;;;;2.95;2.13;;;18.50;42.50;;;;;;5035423;28;20215;-68
2022/01/06 00:06:37;;;;;;;3.80;2.00;;;18.50;42.70;;;;;;5035663;28;20279;-66
2022/01/06 00:09:06;;;;;;;3.03;1.90;;;18.40;42.60;;;;;;5018614;28;20306;-68
2022/01/06 00:11:34;;;;;;;2.50;2.28;;;18.40;42.70;;;;;;5035136;28;20277;-68
2022/01/06 00:14:06;;;;;;;2.83;2.05;;;18.40;42.70;;;;;;5018063;28;20200;-68
2022/01/06 00:16:40;;;;;;;3.33;2.40;;;18.40;42.50;;;;;;5018241;28;20204;-67
2022/01/06 00:24:36;;;;;;;2.63;2.20;;;18.30;42.70;;;;;;5018160;28;20192;-68
2022/01/06 00:27:05;;;;;;;2.83;2.30;;;18.30;42.70;;;;;;5035606;28;20220;-68
2022/01/06 00:29:32;;;;;;;3.45;2.35;;;18.20;42.60;;;;;;5034085;28;20196;-67
2022/01/06 00:31:59;;;;;;;4.53;2.40;;;18.20;42.70;;;;;;5018061;28;20661;-68
2022/01/06 00:34:26;;;;;;;3.55;2.20;;;18.20;42.80;;;;;;5033943;28;20478;-69
2022/01/06 00:36:54;;;;;;;3.42;2.33;;;18.30;42.90;;;;;;5033956;28;20219;-68
2022/01/06 00:39:26;;;;;;;3.13;2.30;;;18.20;42.90;;;;;;5017540;28;20593;-69
2022/01/06 00:41:55;;;;;;;2.83;2.20;;;18.20;42.90;;;;;;5035712;28;20188;-68
2022/01/06 00:44:24;;;;;;;2.65;2.30;;;18.20;42.80;;;;;;5034240;28;20207;-68
2022/01/06 00:46:51;;;;;;;3.80;2.35;;;18.10;42.80;;;;;;5033572;28;20239;-66
2022/01/06 00:49:20;;;;;;;2.50;2.00;;;18.20;42.90;;;;;;5017566;28;20212;-68
2022/01/06 00:51:47;;;;;;;2.95;1.98;;;18.10;42.90;;;;;;5033516;28;20211;-68
2022/01/06 00:54:14;;;;;;;2.67;2.33;;;18.10;43.10;;;;;;5017031;28;20192;-66
2022/01/06 00:56:42;;;;;;;2.75;2.30;;;18.10;43.10;;;;;;5033443;28;20192;-69
2022/01/06 00:59:09;;;;;;;2.40;2.20;;;18.10;43.00;;;;;;5033852;28;20196;-69
2022/01/06 01:01:37;;;;;;;3.25;2.10;;;18.10;43.10;;;;;;5033251;28;20203;-69
2022/01/06 01:04:05;;;;;;;2.47;2.10;;;18.10;43.70;;;;;;5016945;28;20196;-69
2022/01/06 01:06:32;;;;;;;2.85;2.25;;;18.00;43.10;;;;;;5017183;28;20204;-67
2022/01/06 01:08:59;;;;;;;2.65;2.10;;;18.00;43.20;;;;;;5033288;28;20768;-68
2022/01/06 01:11:27;;;;;;;3.03;2.40;;;18.00;43.00;;;;;;5016481;28;20211;-68
2022/01/06 01:14:07;;;;;;;4.10;2.35;;;18.00;43.20;;;;;;5032818;28;20245;-67
2022/01/06 01:16:33;;;;;;;3.13;2.28;;;18.00;43.20;;;;;;5016533;28;20199;-69
2022/01/06 01:19:03;;;;;;;3.80;2.30;;;18.00;43.40;;;;;;5034259;28;20259;-68
2022/01/06 01:21:31;;;;;;;3.40;2.20;;;18.00;43.20;;;;;;5033094;28;20291;-69
2022/01/06 01:23:59;;;;;;;4.05;2.42;;;18.00;43.20;;;;;;5016389;28;20192;-68
2022/01/06 01:26:26;;;;;;;2.53;2.03;;;18.00;43.30;;;;;;5016492;28;20600;-67
2022/01/06 01:28:53;;;;;;;3.55;2.22;;;17.90;43.20;;;;;;5032314;28;20243;-68
2022/01/06 01:31:25;;;;;;;3.05;2.30;;;17.90;43.20;;;;;;5032681;28;20224;-68
2022/01/06 01:33:56;;;;;;;2.42;1.98;;;17.90;43.30;;;;;;5033936;28;20203;-67
2022/01/06 01:36:25;;;;;;;3.45;2.20;;;17.90;43.40;;;;;;5033677;28;20183;-67
2022/01/06 01:38:53;;;;;;;2.20;2.00;;;17.90;43.50;;;;;;5016323;28;20226;-68
2022/01/06 01:41:20;;;;;;;2.63;2.13;;;17.90;43.90;;;;;;5015983;28;20255;-68
2022/01/06 01:43:48;;;;;;;2.85;2.38;;;17.90;43.60;;;;;;5015982;28;20258;-68
2022/01/06 01:46:17;;;;;;;3.33;2.40;;;17.80;43.40;;;;;;5015885;28;20208;-68
2022/01/06 01:48:49;;;;;;;2.72;2.30;;;17.80;43.50;;;;;;5016064;28;20226;-70
2022/01/06 01:51:16;;;;;;;2.95;2.30;;;17.90;44.10;;;;;;5015923;28;20202;-69
2022/01/06 01:53:45;;;;;;;2.60;2.00;;;17.80;43.40;;;;;;5015753;28;20196;-69
2022/01/06 01:56:13;;;;;;;3.20;2.30;;;17.80;43.40;;;;;;5032277;28;20250;-67
2022/01/06 01:58:40;;;;;;;3.72;2.13;;;17.80;43.60;;;;;;5015557;28;20588;-68
2022/01/06 02:01:07;;;;;;;3.17;2.20;;;17.80;43.70;;;;;;5033396;28;20680;-68
2022/01/06 02:03:34;;;;;;;3.47;2.10;;;17.80;43.80;;;;;;5032322;28;20203;-67
2022/01/06 02:06:01;;;;;;;3.28;2.45;;;17.80;43.70;;;;;;5032133;28;20196;-66
2022/01/06 02:08:28;;;;;;;2.67;1.92;;;17.70;43.90;;;;;;5032089;28;20224;-69
2022/01/06 02:10:56;;;;;;;2.50;2.17;;;17.70;43.90;;;;;;5032245;28;20192;-67
2022/01/06 02:13:28;;;;;;;2.20;2.00;;;17.70;43.80;;;;;;5015474;28;20203;-66
2022/01/06 02:15:57;;;;;;;2.97;2.42;;;17.70;43.80;;;;;;5015456;28;20189;-67
2022/01/06 02:18:24;;;;;;;2.45;2.10;;;17.70;43.90;;;;;;5015030;28;20220;-66
2022/01/06 02:20:53;;;;;;;2.65;2.10;;;17.70;43.90;;;;;;5015450;28;20204;-69
2022/01/06 02:23:21;;;;;;;2.90;2.20;;;17.70;43.90;;;;;;5015490;28;20286;-68
2022/01/06 02:25:49;;;;;;;2.50;2.10;;;17.70;43.90;;;;;;5015593;28;20206;-67
2022/01/06 02:28:18;;;;;;;3.00;2.05;;;17.70;43.90;;;;;;5015333;28;20240;-66
2022/01/06 02:30:48;;;;;;;2.85;2.05;;;17.70;43.90;;;;;;5015613;28;20545;-69
2022/01/06 02:33:16;;;;;;;2.40;2.20;;;17.70;43.90;;;;;;5032011;28;20200;-68
2022/01/06 02:35:43;;;;;;;4.95;2.28;;;17.70;43.90;;;;;;5032357;28;20207;-69
2022/01/06 02:38:12;;;;;;;3.05;2.17;;;17.60;43.90;;;;;;5015843;28;20224;-68
2022/01/06 02:40:39;;;;;;;2.60;1.90;;;17.70;43.90;;;;;;5016995;28;20556;-67
2022/01/06 02:43:07;;;;;;;2.20;1.92;;;17.70;43.90;;;;;;5036483;28;20203;-68
2022/01/06 02:45:35;;;;;;;3.30;1.90;;;17.60;43.90;;;;;;5036300;28;20303;-70
2022/01/06 02:48:08;;;;;;;2.35;1.90;;;17.60;43.90;;;;;;5020302;28;20700;-70
2022/01/06 02:50:36;;;;;;;2.97;2.17;;;17.50;43.80;;;;;;5035954;28;20279;-68
2022/01/06 02:53:03;;;;;;;2.75;2.15;;;17.60;43.90;;;;;;5019486;28;20199;-68
2022/01/06 02:55:31;;;;;;;2.03;1.83;;;17.60;43.90;;;;;;5035763;28;20286;-66
2022/01/06 02:57:58;;;;;;;2.20;1.98;;;17.50;43.80;;;;;;5036940;28;20211;-67
2022/01/06 03:00:25;;;;;;;2.40;1.80;;;17.50;43.80;;;;;;5035178;28;20196;-69
2022/01/06 03:02:52;;;;;;;2.47;1.95;;;17.50;43.80;;;;;;5035116;28;20200;-66
2022/01/06 03:05:19;;;;;;;2.47;2.00;;;17.50;43.80;;;;;;5018818;28;20196;-66
2022/01/06 03:07:47;;;;;;;2.38;1.98;;;17.50;43.80;;;;;;5018898;28;20632;-70
2022/01/06 03:10:15;;;;;;;3.60;2.10;;;17.50;43.80;;;;;;5018521;28;20227;-68
2022/01/06 03:12:44;;;;;;;4.07;2.03;;;17.50;43.80;;;;;;5018407;28;20223;-67
2022/01/06 03:15:12;;;;;;;2.08;1.90;;;17.50;43.80;;;;;;5035164;28;20203;-65
2022/01/06 03:17:39;;;;;;;2.17;1.98;;;17.50;43.80;;;;;;5035854;28;20219;-66
2022/01/06 03:20:08;;;;;;;2.65;1.70;;;17.40;43.70;;;;;;5018368;28;20210;-67
2022/01/06 03:22:35;;;;;;;2.17;1.98;;;17.40;43.80;;;;;;5035914;28;20191;-69
2022/01/06 03:25:03;;;;;;;2.47;2.00;;;17.40;43.70;;;;;;5034857;28;20648;-69
2022/01/06 03:27:30;;;;;;;2.70;1.90;;;17.40;43.80;;;;;;5034597;28;20311;-66
2022/01/06 03:29:58;;;;;;;2.83;2.30;;;17.40;43.80;;;;;;5034566;28;20299;-68
2022/01/06 03:32:25;;;;;;;3.55;2.10;;;17.40;43.80;;;;;;5036006;28;20192;-67
2022/01/06 03:34:52;;;;;;;2.40;1.90;;;17.40;43.90;;;;;;5019511;28;20196;-66
2022/01/06 03:37:19;;;;;;;3.78;2.08;;;17.40;43.90;;;;;;5017772;28;20223;-68
2022/01/06 03:39:47;;;;;;;2.47;2.10;;;17.40;44.00;;;;;;5034565;28;20196;-67
2022/01/06 03:42:14;;;;;;;2.17;1.98;;;17.40;44.10;;;;;;5034502;28;20200;-67
2022/01/06 03:44:41;;;;;;;1.98;1.80;;;17.40;44.10;;;;;;5034759;28;20196;-68
2022/01/06 03:47:11;;;;;;;2.97;2.13;;;17.40;44.00;;;;;;5034160;28;20314;-68
2022/01/06 03:49:38;;;;;;;3.03;2.00;;;17.40;44.10;;;;;;5017738;28;20212;-69
2022/01/06 03:52:05;;;;;;;2.72;2.10;;;17.30;44.10;;;;;;5033323;28;20212;-68
2022/01/06 03:54:32;;;;;;;2.22;1.98;;;17.40;44.10;;;;;;5017779;28;20202;-70
2022/01/06 03:57:00;;;;;;;2.00;1.90;;;17.30;44.10;;;;;;5036215;28;20262;-69
2022/01/06 03:59:27;;;;;;;2.50;1.80;;;17.40;44.10;;;;;;5017630;28;20731;-67
2022/01/06 04:01:54;;;;;;;2.97;1.80;;;17.30;44.00;;;;;;5035276;28;20242;-66
2022/01/06 04:04:22;;;;;;;1.73;1.63;;;17.30;44.00;;;;;;5034063;28;20200;-70
2022/01/06 04:06:49;;;;;;;2.30;2.10;;;17.30;44.10;;;;;;5017242;28;20223;-68
2022/01/06 04:09:16;;;;;;;2.10;1.90;;;17.30;44.00;;;;;;5034072;28;20218;-68
2022/01/06 04:11:44;;;;;;;2.50;2.20;;;17.30;43.90;;;;;;5017245;28;20266;-67
2022/01/06 04:14:11;;;;;;;2.00;1.80;;;17.30;44.00;;;;;;5033765;28;20200;-68
2022/01/06 04:16:39;;;;;;;2.00;1.80;;;17.30;44.10;;;;;;5033529;28;20291;-68
2022/01/06 04:19:07;;;;;;;2.70;1.90;;;17.30;44.10;;;;;;5033824;28;20184;-67
2022/01/06 04:21:36;;;;;;;2.58;1.90;;;17.30;44.10;;;;;;5033681;28;20687;-67
2022/01/06 04:24:03;;;;;;;2.28;1.83;;;17.30;44.00;;;;;;5033259;28;20196;-69
2022/01/06 04:26:31;;;;;;;3.83;2.00;;;17.30;44.10;;;;;;5033387;28;20205;-66
2022/01/06 04:28:58;;;;;;;3.30;1.80;;;17.30;44.10;;;;;;5033594;28;20219;-68
2022/01/06 04:31:25;;;;;;;2.15;1.88;;;17.30;43.90;;;;;;5016817;28;20664;-69
2022/01/06 04:33:53;;;;;;;2.55;1.77;;;17.30;43.90;;;;;;5017030;28;20199;-69
2022/01/06 04:36:20;;;;;;;2.30;1.75;;;17.30;43.80;;;;;;5033535;28;20291;-68
2022/01/06 04:38:48;;;;;;;2.03;1.63;;;17.40;43.70;;;;;;5034190;28;20262;-65
2022/01/06 04:41:16;;;;;;;2.00;1.80;;;17.40;43.80;;;;;;5033274;28;20211;-67
2022/01/06 04:43:43;;;;;;;1.92;1.80;;;17.40;43.70;;;;;;5034560;28;20280;-68
2022/01/06 04:46:10;;;;;;;2.05;1.75;;;17.40;43.70;;;;;;5034607;28;20267;-67
2022/01/06 04:48:37;;;;;;;2.13;1.80;;;17.50;43.80;;;;;;5016484;28;20212;-66
2022/01/06 04:51:05;;;;;;;3.33;1.88;;;17.50;43.80;;;;;;5034273;28;20536;-69
2022/01/06 04:53:32;;;;;;;2.00;1.80;;;17.50;43.80;;;;;;5033030;28;20581;-67
2022/01/06 04:56:01;;;;;;;2.92;1.95;;;17.50;43.70;;;;;;5034166;28;20250;-69
2022/01/06 04:58:28;;;;;;;2.15;1.90;;;17.50;43.70;;;;;;5016318;28;20719;-66
2022/01/06 05:00:56;;;;;;;2.17;1.83;;;17.50;43.60;;;;;;5032770;28;20197;-67
2022/01/06 05:03:23;;;;;;;2.85;1.90;;;17.50;43.70;;;;;;5016409;28;20207;-68
2022/01/06 05:05:50;;;;;;;2.00;1.80;;;17.50;43.70;;;;;;5015892;28;20637;-68
2022/01/06 05:08:17;;;;;;;1.80;1.70;;;17.50;43.70;;;;;;5033996;28;20261;-67
2022/01/06 05:10:44;;;;;;;2.35;2.15;;;17.50;43.70;;;;;;5016151;28;20314;-69
2022/01/06 05:13:13;;;;;;;3.03;1.85;;;17.50;43.50;;;;;;5016129;28;20265;-67
2022/01/06 05:15:40;;;;;;;1.65;1.50;;;17.50;43.80;;;;;;5032580;28;20317;-68
2022/01/06 05:18:07;;;;;;;2.28;2.00;;;17.50;43.80;;;;;;5033764;28;20215;-66
2022/01/06 05:20:37;;;;;;;2.13;1.92;;;17.50;43.80;;;;;;5032828;28;20200;-68
2022/01/06 05:23:04;;;;;;;2.00;1.80;;;17.50;43.80;;;;;;5015964;28;20294;-69
2022/01/06 05:25:32;;;;;;;1.70;1.60;;;17.50;43.70;;;;;;5032540;28;20279;-68
2022/01/06 05:27:59;;;;;;;2.05;1.70;;;17.60;43.70;;;;;;5032390;28;20228;-67
2022/01/06 05:30:28;;;;;;;2.95;1.60;;;17.60;43.80;;;;;;5016415;28;20235;-68
2022/01/06 05:32:55;;;;;;;2.17;1.75;;;17.60;43.70;;;;;;5016245;28;20627;-70
2022/01/06 05:35:23;;;;;;;2.00;1.80;;;17.60;43.50;;;;;;5016616;28;20199;-68
2022/01/06 05:37:50;;;;;;;3.00;1.80;;;17.70;43.70;;;;;;5033135;28;20231;-68
2022/01/06 05:40:17;;;;;;;2.08;1.67;;;17.70;43.50;;;;;;5033898;28;20207;-69
2022/01/06 05:42:44;;;;;;;1.85;1.70;;;17.70;43.50;;;;;;5015844;28;20196;-67
2022/01/06 05:45:12;;;;;;;1.77;1.67;;;17.70;43.40;;;;;;5033595;28;20188;-67
2022/01/06 05:47:40;;;;;;;2.17;1.80;;;17.70;43.20;;;;;;5015916;28;20318;-67
2022/01/06 05:50:09;;;;;;;2.08;1.70;;;17.80;43.40;;;;;;5015759;28;20250;-69
2022/01/06 05:52:36;;;;;;;1.80;1.70;;;17.80;43.20;;;;;;5015690;28;20291;-68
2022/01/06 05:55:03;;;;;;;2.63;1.85;;;17.80;43.30;;;;;;5015621;28;20544;-66
2022/01/06 05:57:30;;;;;;;2.33;1.60;;;17.80;43.20;;;;;;5031707;28;20224;-66
2022/01/06 05:59:57;;;;;;;1.95;1.67;;;17.80;43.20;;;;;;5032102;28;20200;-68
2022/01/06 06:02:25;;;;;;;2.10;1.58;;;17.80;43.20;;;;;;5033056;28;20195;-69
2022/01/06 06:04:54;;;;;;;2.83;1.75;;;17.80;43.10;;;;;;5032008;28;20581;-68
2022/01/06 06:07:21;;;;;;;1.67;1.58;;;17.80;43.10;;;;;;5033196;28;20238;-67
2022/01/06 06:09:49;;;;;;;2.10;1.58;;;17.80;43.00;;;;;;5031804;28;20208;-68
2022/01/06 06:12:16;;;;;;;2.03;1.80;;;17.80;43.00;;;;;;5032130;28;20200;-67
2022/01/06 06:14:44;;;;;;;2.08;1.75;;;17.90;43.10;;;;;;5015465;28;20196;-66
2022/01/06 06:17:12;;;;;;;1.70;1.60;;;17.90;43.20;;;;;;5019190;28;20711;-66
2022/01/06 06:19:39;;;;;;;1.70;1.60;;;17.90;43.20;;;;;;5036370;28;20196;-69
2022/01/06 06:22:07;;;;;;;2.08;1.70;;;17.90;43.00;;;;;;5036381;28;20200;-68
2022/01/06 06:24:34;;;;;;;1.90;1.73;;;17.90;42.90;;;;;;5041975;28;20275;-68
2022/01/06 06:27:03;;;;;;;2.35;1.60;;;17.90;43.00;;;;;;5024196;28;20228;-69
2022/01/06 06:29:30;;;;;;;1.77;1.50;;;17.90;42.90;;;;;;5023852;28;20248;-69
2022/01/06 06:31:57;;;;;;;2.47;1.80;;;17.90;43.00;;;;;;5039813;28;20196;-68
2022/01/06 06:34:24;;;;;;;2.35;1.70;;;17.90;43.10;;;;;;5036074;28;20216;-69
2022/01/06 06:36:52;;;;;;;1.80;1.70;;;18.00;43.00;;;;;;5035655;28;20220;-69
2022/01/06 06:39:20;;;;;;;1.80;1.70;;;18.00;43.00;;;;;;5019266;28;20207;-68
2022/01/06 06:41:48;;;;;;;1.70;1.60;;;18.00;43.00;;;;;;5035700;28;20632;-67
2022/01/06 06:44:15;;;;;;;2.00;1.63;;;18.00;43.70;;;;;;5035796;28;20347;-67
2022/01/06 06:46:42;;;;;;;3.08;1.80;;;18.00;42.90;;;;;;5018899;28;20200;-68
2022/01/06 06:49:10;;;;;;;3.08;1.90;;;18.00;42.90;;;;;;5019048;28;20290;-68
2022/01/06 06:51:37;;;;;;;1.60;1.45;;;18.10;43.00;;;;;;5036940;28;20202;-67
2022/01/06 06:54:04;;;;;;;1.65;1.45;;;18.10;43.10;;;;;;5035480;28;20509;-68
2022/01/06 06:56:32;;;;;;;1.90;1.73;;;18.10;43.10;;;;;;5035931;28;20200;-67
2022/01/06 06:58:59;;;;;;;1.70;1.60;;;18.10;42.90;;;;;;5023693;28;20238;-67
2022/01/06 07:01:26;;;;;;;1.52;1.42;;;18.10;42.80;;;;;;5046214;28;20196;-68
2022/01/06 07:03:53;;;;;;;1.80;1.70;;;18.10;42.90;;;;;;5048157;28;20199;-69
2022/01/06 07:06:22;;;;;;;1.70;1.60;;;18.10;42.90;;;;;;5040626;28;20201;-68
2022/01/06 07:08:49;;;;;;;1.67;1.58;;;18.10;42.70;;;;;;5037375;28;20212;-68
2022/01/06 07:11:16;;;;;;;1.95;1.70;;;18.10;42.80;;;;;;5019058;28;20212;-69
2022/01/06 07:13:45;;;;;;;2.22;1.60;;;18.10;42.70;;;;;;5036625;28;20668;-68
2022/01/06 07:16:11;;;;;;;2.22;1.63;;;18.10;42.70;;;;;;5036516;28;20192;-68
2022/01/06 07:18:38;;;;;;;1.80;1.63;;;18.10;42.50;;;;;;5034934;28;20227;-66
2022/01/06 07:21:06;;;;;;;1.90;1.77;;;18.10;42.80;;;;;;5018520;28;20280;-69
2022/01/06 07:23:33;;;;;;;1.85;1.75;;;18.10;42.70;;;;;;5036396;28;20184;-69
2022/01/06 07:26:00;;;;;;;2.45;1.90;;;18.10;42.80;;;;;;5034792;28;20196;-67
2022/01/06 07:28:27;;;;;;;2.50;1.90;;;18.10;42.90;;;;;;5017045;28;20222;-67
2022/01/06 07:30:56;;;;;;;2.55;1.80;;;18.10;42.80;;;;;;5036319;28;20212;-68
2022/01/06 07:33:23;;;;;;;2.00;1.90;;;18.10;42.80;;;;;;5018162;28;20200;-69
2022/01/06 07:35:50;;;;;;;2.38;1.80;;;18.10;42.70;;;;;;5018188;28;20200;-65
2022/01/06 07:38:18;;;;;;;2.78;1.65;;;18.10;42.60;;;;;;5034338;28;20227;-66
2022/01/06 07:40:45;;;;;;;1.98;1.70;;;18.20;42.80;;;;;;5035768;28;20267;-68
2022/01/06 07:43:12;;;;;;;2.60;1.98;;;18.20;42.70;;;;;;5034348;28;20207;-66
2022/01/06 07:45:39;;;;;;;1.83;1.73;;;18.10;42.60;;;;;;5017586;28;20195;-67
2022/01/06 07:48:16;;;;;;;2.35;1.70;;;18.20;42.70;;;;;;5034140;28;20215;-69
2022/01/06 07:50:44;;;;;;;1.70;1.60;;;18.20;42.40;;;;;;5017736;28;20641;-68
2022/01/06 07:53:11;;;;;;;1.70;1.60;;;18.20;43.10;;;;;;5034226;28;20660;-68
2022/01/06 07:55:38;;;;;;;1.85;1.70;;;18.20;42.60;;;;;;5034013;28;20200;-69
2022/01/06 07:58:05;;;;;;;3.05;2.05;;;18.20;42.50;;;;;;5017575;28;20226;-67
2022/01/06 08:00:32;;;;;;;3.03;1.60;;;18.30;42.50;;;;;;5034065;28;20196;-66
2022/01/06 08:02:59;;;;;;;1.92;1.80;;;18.20;42.50;;;;;;5017358;28;20196;-69
2022/01/06 08:05:28;;;;;;;3.95;1.98;;;18.20;42.30;;;;;;5034076;28;20202;-68
2022/01/06 08:07:55;;;;;;;1.80;1.70;;;18.20;42.30;;;;;;5033884;28;20318;-67
2022/01/06 08:10:22;;;;;;;1.80;1.70;;;18.20;42.30;;;;;;5033484;28;20232;-68
2022/01/06 08:12:49;;;;;;;2.15;1.98;;;18.30;42.40;;;;;;5033619;28;20628;-69
2022/01/06 08:15:16;;;;;;;3.40;1.83;;;18.30;42.20;;;;;;5033838;28;20225;-67
2022/01/06 08:17:43;;;;;;;2.00;1.90;;;18.30;42.20;;;;;;5017249;28;20235;-66
2022/01/06 08:20:12;;;;;;;2.17;1.98;;;18.30;42.20;;;;;;5017076;28;20188;-67
2022/01/06 08:22:40;;;;;;;2.10;1.90;;;18.30;42.20;;;;;;5016989;28;20204;-68
2022/01/06 08:25:08;;;;;;;1.92;1.70;;;18.30;42.10;;;;;;5016772;28;20210;-67
2022/01/06 08:27:35;;;;;;;2.00;1.80;;;18.30;41.80;;;;;;5017340;28;20704;-67
2022/01/06 08:30:04;;;;;;;2.28;1.77;;;18.40;42.10;;;;;;5035353;28;20238;-66
2022/01/06 08:32:32;;;;;;;2.75;1.88;;;18.40;41.80;;;;;;5018808;28;20250;-68
2022/01/06 08:34:59;;;;;;;2.10;1.90;;;18.40;41.80;;;;;;5038159;28;20188;-68
2022/01/06 08:37:27;;;;;;;3.28;2.00;;;18.40;41.90;;;;;;5035832;28;20274;-67
2022/01/06 08:39:55;;;;;;;1.95;1.85;;;18.40;41.90;;;;;;5016511;28;20222;-67
2022/01/06 08:42:22;;;;;;;1.85;1.75;;;18.40;42.00;;;;;;5016919;28;20212;-69
2022/01/06 08:44:50;;;;;;;2.50;1.88;;;18.40;41.80;;;;;;5016785;28;20214;-68
2022/01/06 08:47:17;;;;;;;1.80;1.70;;;18.40;41.70;;;;;;5016903;28;20220;-69
2022/01/06 08:49:45;;;;;;;2.10;1.88;;;18.50;41.80;;;;;;5034288;28;20258;-68
2022/01/06 08:52:13;;;;;;;1.98;1.80;;;18.50;41.60;;;;;;5033311;28;20223;-68
2022/01/06 08:54:40;;;;;;;1.70;1.60;;;18.50;41.80;;;;;;5016771;28;20577;-67
2022/01/06 08:57:08;;;;;;;1.73;1.60;;;18.50;41.80;;;;;;5016561;28;20219;-67
2022/01/06 08:59:35;;;;;;;2.28;1.80;;;18.50;41.60;;;;;;5016815;28;20206;-68
2022/01/06 09:02:03;;;;;;;2.25;2.00;;;18.50;41.70;;;;;;5033050;28;20196;-70
2022/01/06 09:04:30;;;;;;;2.00;1.80;;;18.50;41.60;;;;;;5034000;28;20195;-67
2022/01/06 09:06:58;;;;;;;2.30;1.73;;;18.50;41.70;;;;;;5033040;28;20223;-66
2022/01/06 09:09:25;;;;;;;2.35;1.85;;;18.60;41.60;;;;;;5016018;28;20196;-66
2022/01/06 09:11:53;;;;;;;2.63;1.80;;;18.60;41.70;;;;;;5032597;28;20274;-69
2022/01/06 09:14:22;;;;;;;1.88;1.75;;;18.60;41.60;;;;;;5015893;28;20303;-66
2022/01/06 09:16:50;;;;;;;2.25;1.80;;;18.60;41.40;;;;;;5032552;28;20297;-68
2022/01/06 09:19:17;;;;;;;2.45;1.90;;;18.60;41.60;;;;;;5016338;28;20257;-67
2022/01/06 09:21:45;;;;;;;1.65;1.55;;;18.60;41.30;;;;;;5032109;28;20246;-69
2022/01/06 09:24:12;;;;;;;1.80;1.70;;;18.60;41.50;;;;;;5032132;28;20195;-67
2022/01/06 09:26:39;;;;;;;3.20;2.13;;;18.60;41.70;;;;;;5032147;28;20206;-65
2022/01/06 09:29:07;;;;;;;2.75;1.63;;;18.60;41.70;;;;;;5015760;28;20200;-69
2022/01/06 09:31:36;;;;;;;2.30;1.98;;;18.60;41.70;;;;;;5031950;28;20212;-70
2022/01/06 09:34:02;;;;;;;1.88;1.67;;;18.60;41.60;;;;;;5032267;28;20192;-67
2022/01/06 09:36:30;;;;;;;1.88;1.73;;;18.60;41.60;;;;;;5031880;28;20238;-65
2022/01/06 09:38:57;;;;;;;2.78;2.00;;;18.70;41.60;;;;;;5032265;28;20204;-68
2022/01/06 09:41:26;;;;;;;1.88;1.70;;;18.70;41.60;;;;;;5032081;28;20254;-67
2022/01/06 09:43:53;;;;;;;2.45;1.90;;;18.60;41.30;;;;;;5031990;28;20660;-68
2022/01/06 09:46:21;;;;;;;2.20;1.75;;;18.70;41.40;;;;;;5015413;28;20196;-66
2022/01/06 09:48:50;;;;;;;2.10;1.90;;;18.70;41.40;;;;;;5015392;28;20255;-66
2022/01/06 09:51:19;;;;;;;2.83;2.00;;;18.70;41.40;;;;;;5014806;28;20666;-69
2022/01/06 09:53:48;;;;;;;2.20;1.70;;;18.70;41.50;;;;;;5015046;28;20691;-70
2022/01/06 09:56:15;;;;;;;2.35;1.80;;;18.70;41.40;;;;;;5031658;28;20294;-68
2022/01/06 09:58:43;;;;;;;2.15;1.75;;;18.70;41.30;;;;;;5032905;28;20227;-66
2022/01/06 10:01:10;;;;;;;2.67;1.95;;;18.80;41.40;;;;;;5033033;28;20234;-67
2022/01/06 10:03:37;;;;;;;2.50;1.70;;;18.80;41.30;;;;;;5031767;28;20296;-69
2022/01/06 10:06:14;;;;;;;1.80;1.70;;;18.80;41.20;;;;;;5014970;28;20200;-66
2022/01/06 10:08:41;;;;;;;2.00;1.60;;;18.80;41.20;;;;;;5014894;28;20226;-67
2022/01/06 10:11:10;;;;;;;2.55;1.70;;;18.90;41.20;;;;;;5015359;28;20265;-67
2022/01/06 10:13:37;;;;;;;2.50;1.70;;;18.90;41.10;;;;;;5031439;28;20207;-68
2022/01/06 10:16:15;;;;;;;1.85;1.70;;;18.90;41.10;;;;;;5032928;28;20188;-66
2022/01/06 10:18:54;;;;;;;2.17;1.77;;;19.00;41.20;;;;;;5015052;28;20250;-69
2022/01/06 10:21:22;;;;;;;2.28;1.70;;;19.00;41.60;;;;;;5031293;28;20195;-66
2022/01/06 10:24:02;;;;;;;2.10;1.75;;;19.00;41.00;;;;;;5014983;28;20757;-68
2022/01/06 10:26:29;;;;;;;2.10;1.67;;;19.00;40.90;;;;;;5031394;28;20195;-66
2022/01/06 10:28:56;;;;;;;2.53;2.10;;;19.00;40.90;;;;;;5032685;28;20214;-68
2022/01/06 10:31:25;;;;;;;2.92;1.70;;;19.00;40.70;;;;;;5014988;28;20282;-68
2022/01/06 10:33:53;;;;;;;2.00;1.80;;;19.00;40.80;;;;;;5032619;28;20195;-67
2022/01/06 10:36:29;;;;;;;2.42;1.73;;;19.00;40.70;;;;;;5014760;28;20284;-65
2022/01/06 10:38:57;;;;;;;2.33;1.70;;;19.00;40.50;;;;;;5015030;28;20612;-67
2022/01/06 10:41:26;;;;;;;2.65;1.73;;;19.00;40.70;;;;;;5014835;28;20257;-68
2022/01/06 10:43:55;;;;;;;2.97;2.10;;;19.00;40.70;;;;;;5014871;28;20204;-68
2022/01/06 10:46:34;;;;;;;2.38;1.70;;;19.00;40.50;;;;;;5031179;28;20296;-68
2022/01/06 10:49:02;;;;;;;2.30;1.88;;;19.00;40.80;;;;;;5014954;28;20199;-70
2022/01/06 10:51:36;;;;;;;2.58;1.90;;;19.00;40.50;;;;;;5014800;28;20220;-67
2022/01/06 10:54:04;;;;;;;1.95;1.75;;;19.00;40.40;;;;;;5014846;28;20684;-66
2022/01/06 10:56:32;;;;;;;2.42;1.80;;;19.00;40.50;;;;;;5014688;28;20206;-67
2022/01/06 10:58:59;;;;;;;2.30;1.70;;;19.00;40.70;;;;;;5014923;28;20200;-67
2022/01/06 11:01:26;;;;;;;2.20;2.00;;;19.00;40.50;;;;;;5015622;28;20196;-66
2022/01/06 11:03:54;;;;;;;4.68;1.95;;;19.10;40.50;;;;;;5018399;28;20269;-69
2022/01/06 11:06:21;;;;;;;2.70;1.90;;;19.10;40.50;;;;;;5035208;28;20196;-68
2022/01/06 11:08:51;;;;;;;2.22;1.80;;;19.10;40.50;;;;;;5036304;28;20306;-68
2022/01/06 11:11:32;;;;;;;3.40;1.90;;;19.10;40.40;;;;;;5018678;28;20284;-68
2022/01/06 11:13:59;;;;;;;2.45;2.00;;;19.10;40.50;;;;;;5018529;28;20332;-68
2022/01/06 11:16:26;;;;;;;3.13;2.10;;;19.10;40.20;;;;;;5018287;28;20295;-68
2022/01/06 11:18:54;;;;;;;2.60;1.88;;;19.10;40.30;;;;;;5034697;28;20212;-68
2022/01/06 11:21:24;;;;;;;2.10;1.90;;;19.20;40.20;;;;;;5035108;28;20243;-68
2022/01/06 11:24:05;;;;;;;2.15;1.95;;;19.20;40.50;;;;;;5036180;28;20192;-67
2022/01/06 11:26:32;;;;;;;2.97;2.00;;;19.20;40.40;;;;;;5035094;28;20192;-66
2022/01/06 11:29:01;;;;;;;2.17;1.65;;;19.20;40.40;;;;;;5035210;28;20196;-69
2022/01/06 11:31:29;;;;;;;2.75;1.75;;;19.20;40.10;;;;;;5034593;28;20216;-69
2022/01/06 11:33:57;;;;;;;2.78;1.98;;;19.30;40.30;;;;;;5018343;28;20197;-69
2022/01/06 11:36:26;;;;;;;2.40;1.90;;;19.20;40.30;;;;;;5018037;28;20667;-67
2022/01/06 11:38:54;;;;;;;3.63;2.22;;;19.30;40.20;;;;;;5034891;28;20219;-69
2022/01/06 11:41:25;;;;;;;3.13;1.70;;;19.20;40.00;;;;;;5034082;28;20192;-69
2022/01/06 11:43:57;;;;;;;2.20;2.00;;;19.30;39.90;;;;;;5033965;28;20195;-68
2022/01/06 11:46:24;;;;;;;3.67;1.92;;;19.30;40.00;;;;;;5017653;28;20201;-67
2022/01/06 11:48:52;;;;;;;3.13;1.98;;;19.30;39.70;;;;;;5017734;28;20656;-70
2022/01/06 11:51:27;;;;;;;2.63;2.00;;;19.30;39.80;;;;;;5033858;28;20223;-67
2022/01/06 11:53:54;;;;;;;3.17;2.00;;;19.30;39.80;;;;;;5017335;28;20234;-69
2022/01/06 11:56:23;;;;;;;3.60;2.00;;;19.30;39.80;;;;;;5017425;28;20196;-69
2022/01/06 11:59:01;;;;;;;3.10;2.10;;;19.30;39.90;;;;;;5016869;28;20648;-66
2022/01/06 12:01:28;;;;;;;3.05;2.03;;;19.30;39.60;;;;;;5034029;28;20206;-68
2022/01/06 12:03:55;;;;;;;3.28;1.90;;;19.30;39.80;;;;;;5034856;28;20195;-68
2022/01/06 12:06:25;;;;;;;3.78;1.90;;;19.40;40.10;;;;;;5016788;28;20283;-67
2022/01/06 12:08:52;;;;;;;1.70;1.60;;;19.30;39.80;;;;;;5034580;28;20208;-68
2022/01/06 12:11:21;;;;;;;3.28;1.80;;;19.40;40.00;;;;;;5034700;28;20208;-67
2022/01/06 12:13:50;;;;;;;2.10;1.90;;;19.40;40.10;;;;;;5033837;28;20187;-66
2022/01/06 12:16:24;;;;;;;2.40;1.88;;;19.40;40.10;;;;;;5033251;28;20290;-69
2022/01/06 12:18:52;;;;;;;3.33;2.00;;;19.40;40.00;;;;;;5034438;28;20246;-65
2022/01/06 12:21:19;;;;;;;2.55;1.70;;;19.40;39.90;;;;;;5033157;28;20222;-70
2022/01/06 12:23:46;;;;;;;3.00;1.90;;;19.40;40.00;;;;;;5033260;28;20196;-69
2022/01/06 12:26:13;;;;;;;2.67;1.90;;;19.40;39.90;;;;;;5034075;28;20207;-67
2022/01/06 12:28:46;;;;;;;2.17;1.70;;;19.40;39.80;;;;;;5032688;28;20243;-65
2022/01/06 12:31:20;;;;;;;2.28;1.98;;;19.40;39.70;;;;;;5032887;28;20192;-66
2022/01/06 12:33:49;;;;;;;2.55;2.08;;;19.40;40.00;;;;;;5016407;28;20196;-67
2022/01/06 12:36:17;;;;;;;2.10;1.73;;;19.40;39.90;;;;;;5032982;28;20204;-67
2022/01/06 12:38:44;;;;;;;2.97;1.95;;;19.50;40.00;;;;;;5034542;28;20212;-67
2022/01/06 12:41:11;;;;;;;2.78;1.90;;;19.40;40.00;;;;;;5016089;28;20652;-69
2022/01/06 12:43:39;;;;;;;3.03;2.20;;;19.50;40.00;;;;;;5032451;28;20195;-67
2022/01/06 12:46:08;;;;;;;3.55;2.10;;;19.50;40.00;;;;;;5016227;28;20238;-67
2022/01/06 12:48:38;;;;;;;3.63;2.17;;;19.50;39.80;;;;;;5016195;28;20609;-69
2022/01/06 12:51:05;;;;;;;2.85;1.88;;;19.50;39.90;;;;;;5032493;28;20192;-67
2022/01/06 12:53:32;;;;;;;2.58;2.00;;;19.50;39.80;;;;;;5016016;28;20200;-68
2022/01/06 12:56:00;;;;;;;2.58;1.90;;;19.40;39.80;;;;;;5015971;28;20206;-67
2022/01/06 12:58:28;;;;;;;2.38;2.05;;;19.50;39.90;;;;;;5033762;28;20208;-66